createdAt,value
2023-04-18T00:00:50.320Z,101884.14
2023-04-18T00:03:21.034Z,101883.20
2023-04-18T00:05:49.962Z,101883.55
2023-04-18T00:08:18.654Z,101882.19
2023-04-18T00:10:47.448Z,101883.09
2023-04-18T00:13:18.442Z,101884.14
2023-04-18T00:15:47.233Z,101883.92
2023-04-18T00:18:17.283Z,101881.63
2023-04-18T00:20:46.385Z,101879.42
2023-04-18T00:23:15.220Z,101877.67
2023-04-18T00:25:44.004Z,101879.61
2023-04-18T00:28:12.693Z,101879.44
2023-04-18T00:30:41.470Z,101876.62
2023-04-18T00:33:10.183Z,101874.43
2023-04-18T00:35:38.903Z,101879.73
2023-04-18T00:38:07.623Z,101876.06
2023-04-18T00:40:36.911Z,101876.36
2023-04-18T00:43:07.852Z,101878.11
2023-04-18T00:45:37.072Z,101878.12
2023-04-18T00:48:05.964Z,101878.19
2023-04-18T00:50:37.091Z,101869.22
2023-04-18T00:53:06.161Z,101869.02
2023-04-18T00:55:35.715Z,101869.02
2023-04-18T00:58:04.546Z,101872.35
2023-04-18T01:00:33.204Z,101870.23
2023-04-18T01:03:02.133Z,101869.92
2023-04-18T01:05:31.191Z,101864.72
2023-04-18T01:08:01.349Z,101867.34
2023-04-18T01:10:31.108Z,101866.36
2023-04-18T01:13:11.292Z,101871.34
2023-04-18T01:15:41.780Z,101865.15
2023-04-18T01:18:11.792Z,101862.91
2023-04-18T01:20:45.779Z,101859.68
2023-04-18T01:23:16.065Z,101864.73
2023-04-18T01:25:46.506Z,101866.64
2023-04-18T01:28:15.495Z,101865.09
2023-04-18T01:30:44.287Z,101863.08
2023-04-18T01:33:13.147Z,101862.77
2023-04-18T01:35:41.840Z,101861.34
2023-04-18T01:38:10.497Z,101861.25
2023-04-18T01:40:39.165Z,101856.99
2023-04-18T01:43:07.844Z,101865.09
2023-04-18T01:45:36.506Z,101863.95
2023-04-18T01:48:05.373Z,101865.39
2023-04-18T01:50:34.067Z,101866.09
2023-04-18T01:53:02.757Z,101869.19
2023-04-18T01:55:31.464Z,101869.98
2023-04-18T01:58:00.155Z,101867.70
2023-04-18T02:00:28.893Z,101869.38
2023-04-18T02:03:00.874Z,101866.16
2023-04-18T02:05:29.580Z,101867.65
2023-04-18T02:07:59.287Z,101864.52
2023-04-18T02:10:28.032Z,101866.70
2023-04-18T02:12:56.698Z,101865.99
2023-04-18T02:15:25.517Z,101865.65
2023-04-18T02:17:54.452Z,101863.10
2023-04-18T02:20:23.182Z,101861.77
2023-04-18T02:22:52.392Z,101861.52
2023-04-18T02:25:23.706Z,101861.37
2023-04-18T02:27:53.551Z,101858.50
2023-04-18T02:30:23.163Z,101855.70
2023-04-18T02:32:58.829Z,101854.72
2023-04-18T02:35:27.670Z,101854.83
2023-04-18T02:37:56.387Z,101855.92
2023-04-18T02:40:25.017Z,101854.36
2023-04-18T02:42:53.683Z,101856.44
2023-04-18T02:45:22.326Z,101853.57
2023-04-18T02:47:55.212Z,101856.19
2023-04-18T02:50:25.274Z,101854.17
2023-04-18T02:52:54.088Z,101855.95
2023-04-18T02:55:22.721Z,101857.23
2023-04-18T02:57:51.366Z,101856.99
2023-04-18T03:00:20.317Z,101860.61
2023-04-18T03:02:49.207Z,101857.08
2023-04-18T03:05:18.001Z,101859.05
2023-04-18T03:07:46.693Z,101860.08
2023-04-18T03:10:15.411Z,101861.33
2023-04-18T03:12:44.048Z,101860.88
2023-04-18T03:15:12.767Z,101864.84
2023-04-18T03:17:41.573Z,101860.13
2023-04-18T03:20:10.658Z,101862.83
2023-04-18T03:22:39.306Z,101860.23
2023-04-18T03:25:08.432Z,101862.28
2023-04-18T03:27:37.157Z,101860.95
2023-04-18T03:30:06.646Z,101858.41
2023-04-18T03:32:36.419Z,101863.94
2023-04-18T03:35:05.711Z,101862.92
2023-04-18T03:37:34.377Z,101865.28
2023-04-18T03:40:05.396Z,101862.27
2023-04-18T03:42:34.082Z,101858.40
2023-04-18T03:45:02.952Z,101864.05
2023-04-18T03:47:32.151Z,101864.05
2023-04-18T03:50:00.931Z,101863.50
2023-04-18T03:52:29.894Z,101862.76
2023-04-18T03:54:58.699Z,101861.95
2023-04-18T03:57:27.485Z,101859.73
2023-04-18T03:59:56.202Z,101865.42
2023-04-18T04:02:24.965Z,101865.92
2023-04-18T04:04:54.002Z,101865.41
2023-04-18T04:07:22.664Z,101868.95
2023-04-18T04:09:51.368Z,101872.51
2023-04-18T04:12:20.543Z,101872.11
2023-04-18T04:14:49.335Z,101872.51
2023-04-18T04:17:17.987Z,101876.66
2023-04-18T04:19:46.733Z,101871.80
2023-04-18T04:22:15.481Z,101877.20
2023-04-18T04:24:44.424Z,101875.89
2023-04-18T04:27:13.645Z,101878.11
2023-04-18T04:29:43.800Z,101875.16
2023-04-18T04:32:12.954Z,101881.45
2023-04-18T04:34:41.914Z,101875.02
2023-04-18T04:37:10.576Z,101878.13
2023-04-18T04:39:39.369Z,101880.52
2023-04-18T04:42:09.701Z,101876.48
2023-04-18T04:44:38.465Z,101879.16
2023-04-18T04:47:07.493Z,101880.10
2023-04-18T04:49:36.161Z,101884.83
2023-04-18T04:52:04.804Z,101888.40
2023-04-18T04:54:33.513Z,101891.05
2023-04-18T04:57:02.226Z,101889.30
2023-04-18T04:59:31.548Z,101888.17
2023-04-18T05:02:00.259Z,101894.27
2023-04-18T05:04:29.117Z,101892.91
2023-04-18T05:06:57.952Z,101896.98
2023-04-18T05:09:26.807Z,101898.84
2023-04-18T05:11:55.578Z,101899.48
2023-04-18T05:14:25.233Z,101898.41
2023-04-18T05:16:55.703Z,101899.21
2023-04-18T05:19:24.422Z,101903.21
2023-04-18T05:21:53.101Z,101906.29
2023-04-18T05:24:21.788Z,101903.14
2023-04-18T05:26:50.580Z,101904.14
2023-04-18T05:29:19.411Z,101903.64
2023-04-18T05:31:48.086Z,101905.36
2023-04-18T05:34:16.934Z,101902.10
2023-04-18T05:36:47.732Z,101906.57
2023-04-18T05:39:17.138Z,101906.33
2023-04-18T05:41:45.820Z,101908.67
2023-04-18T05:44:16.477Z,101911.29
2023-04-18T05:46:45.820Z,101908.91
2023-04-18T05:49:14.691Z,101910.02
2023-04-18T05:51:43.363Z,101908.41
2023-04-18T05:54:12.841Z,101908.52
2023-04-18T05:56:41.723Z,101907.80
2023-04-18T05:59:10.838Z,101906.42
2023-04-18T06:01:39.905Z,101909.95
2023-04-18T06:04:08.739Z,101908.57
2023-04-18T06:06:37.706Z,101909.37
2023-04-18T06:09:06.388Z,101909.45
2023-04-18T06:11:35.757Z,101911.02
2023-04-18T06:14:04.443Z,101912.92
2023-04-18T06:16:33.232Z,101915.70
2023-04-18T06:19:03.246Z,101919.45
2023-04-18T06:21:32.126Z,101917.89
2023-04-18T06:24:01.702Z,101919.88
2023-04-18T06:26:32.108Z,101917.93
2023-04-18T06:29:01.174Z,101919.71
2023-04-18T06:31:29.885Z,101915.40
2023-04-18T06:33:58.625Z,101919.14
2023-04-18T06:36:27.501Z,101920.02
2023-04-18T06:38:56.155Z,101922.91
2023-04-18T06:41:24.853Z,101920.34
2023-04-18T06:44:03.389Z,101923.67
2023-04-18T06:46:33.229Z,101928.77
2023-04-18T06:49:02.630Z,101927.81
2023-04-18T06:51:31.691Z,101933.09
2023-04-18T06:54:00.423Z,101932.84
2023-04-18T06:56:29.788Z,101936.17
2023-04-18T06:58:58.467Z,101934.89
2023-04-18T07:01:27.212Z,101936.45
2023-04-18T07:03:56.371Z,101938.20
2023-04-18T07:06:26.193Z,101936.85
2023-04-18T07:08:59.982Z,101938.02
2023-04-18T07:11:29.292Z,101940.06
2023-04-18T07:13:57.908Z,101940.23
2023-04-18T07:16:26.780Z,101940.85
2023-04-18T07:18:55.506Z,101945.09
2023-04-18T07:21:24.174Z,101952.00
2023-04-18T07:23:52.842Z,101949.97
2023-04-18T07:26:21.582Z,101950.73
2023-04-18T07:28:50.508Z,101952.81
2023-04-18T07:31:19.611Z,101952.11
2023-04-18T07:33:48.416Z,101953.39
2023-04-18T07:36:18.125Z,101956.15
2023-04-18T07:38:47.259Z,101959.11
2023-04-18T07:41:15.983Z,101959.28
2023-04-18T07:43:44.978Z,101960.64
2023-04-18T07:46:14.035Z,101961.53
2023-04-18T07:48:42.907Z,101963.95
2023-04-18T07:51:11.880Z,101961.88
2023-04-18T07:53:41.262Z,101963.92
2023-04-18T07:56:12.517Z,101960.63
2023-04-18T07:58:41.320Z,101961.96
2023-04-18T08:01:13.527Z,101958.20
2023-04-18T08:03:42.440Z,101960.50
2023-04-18T08:06:11.250Z,101963.25
2023-04-18T08:08:39.966Z,101959.70
2023-04-18T08:11:08.658Z,101961.65
2023-04-18T08:13:37.361Z,101965.30
2023-04-18T08:16:06.345Z,101967.40
2023-04-18T08:18:35.782Z,101968.50
2023-04-18T08:21:04.859Z,101971.35
2023-04-18T08:23:33.534Z,101967.98
2023-04-18T08:26:02.168Z,101971.91
2023-04-18T08:28:30.848Z,101969.27
2023-04-18T08:30:59.624Z,101970.75
2023-04-18T08:33:29.129Z,101973.45
2023-04-18T08:35:57.893Z,101974.02
2023-04-18T08:38:26.531Z,101972.23
2023-04-18T08:40:55.307Z,101973.20
2023-04-18T08:43:25.257Z,101974.09
2023-04-18T08:46:00.350Z,101977.05
2023-04-18T08:48:29.294Z,101974.79
2023-04-18T08:50:59.222Z,101979.91
2023-04-18T08:53:28.081Z,101976.79
2023-04-18T08:55:59.512Z,101978.69
2023-04-18T08:58:32.244Z,101981.94
2023-04-18T09:01:01.043Z,101977.41
2023-04-18T09:03:41.171Z,101973.95
2023-04-18T09:06:16.282Z,101977.48
2023-04-18T09:08:59.275Z,101977.06
2023-04-18T09:11:30.122Z,101978.11
2023-04-18T09:13:59.124Z,101982.27
2023-04-18T09:16:28.412Z,101983.64
2023-04-18T09:19:18.623Z,101978.35
2023-04-18T09:21:58.262Z,101981.00
2023-04-18T09:24:30.545Z,101980.45
2023-04-18T09:27:00.132Z,101980.97
2023-04-18T09:29:47.171Z,101979.70
2023-04-18T09:32:25.100Z,101975.77
2023-04-18T09:34:58.084Z,101985.98
2023-04-18T09:37:28.178Z,101984.92
2023-04-18T09:39:56.814Z,101981.42
2023-04-18T09:42:28.192Z,101983.33
2023-04-18T09:45:08.313Z,101977.51
2023-04-18T09:47:37.498Z,101977.30
2023-04-18T09:50:08.792Z,101979.20
2023-04-18T09:52:40.505Z,101978.20
2023-04-18T09:55:11.695Z,101977.20
2023-04-18T09:57:44.281Z,101974.07
2023-04-18T10:00:20.386Z,101970.36
2023-04-18T10:02:53.183Z,101968.00
2023-04-18T10:05:30.900Z,101971.27
2023-04-18T10:07:59.715Z,101972.45
2023-04-18T10:10:28.519Z,101974.41
2023-04-18T10:12:59.747Z,101976.06
2023-04-18T10:15:30.589Z,101977.59
2023-04-18T10:18:11.318Z,101973.74
2023-04-18T10:20:41.671Z,101972.54
2023-04-18T10:23:37.782Z,101970.88
2023-04-18T10:26:12.459Z,101971.10
2023-04-18T10:28:58.504Z,101969.58
2023-04-18T10:31:29.044Z,101969.70
2023-04-18T10:36:31.131Z,101965.52
2023-04-18T10:39:20.982Z,101965.00
2023-04-18T10:41:51.730Z,101970.08
2023-04-18T10:44:23.027Z,101967.09
2023-04-18T10:46:52.114Z,101964.83
2023-04-18T10:49:30.302Z,101967.42
2023-04-18T10:52:02.786Z,101964.79
2023-04-18T10:54:50.917Z,101963.00
2023-04-18T10:57:20.070Z,101964.05
2023-04-18T10:59:50.798Z,101960.45
2023-04-18T11:02:32.270Z,101954.36
2023-04-18T11:05:04.610Z,101960.97
2023-04-18T11:07:34.091Z,101957.66
2023-04-18T11:10:07.234Z,101957.77
2023-04-18T11:12:38.301Z,101955.45
2023-04-18T11:15:21.404Z,101952.08
2023-04-18T11:18:04.713Z,101950.73
2023-04-18T11:20:45.985Z,101949.36
2023-04-18T11:23:21.467Z,101947.33
2023-04-18T11:25:56.257Z,101950.98
2023-04-18T11:28:25.219Z,101948.91
2023-04-18T11:30:58.619Z,101947.33
2023-04-18T11:33:28.816Z,101945.17
2023-04-18T11:36:00.675Z,101945.33
2023-04-18T11:38:30.938Z,101947.17
2023-04-18T11:41:02.687Z,101945.93
2023-04-18T11:43:31.419Z,101946.12
2023-04-18T11:46:00.319Z,101944.15
2023-04-18T11:48:36.729Z,101944.38
2023-04-18T11:51:06.692Z,101939.77
2023-04-18T11:53:36.791Z,101939.45
2023-04-18T11:56:06.372Z,101944.30
2023-04-18T11:58:36.631Z,101944.75
2023-04-18T12:01:22.692Z,101945.31
2023-04-18T12:04:06.812Z,101943.05
2023-04-18T12:06:53.658Z,101937.95
2023-04-18T12:09:25.068Z,101936.71
2023-04-18T12:12:01.620Z,101932.30
2023-04-18T12:14:30.651Z,101931.63
2023-04-18T12:16:59.339Z,101932.73
2023-04-18T12:19:30.079Z,101931.30
2023-04-18T12:22:05.167Z,101930.72
2023-04-18T12:24:34.490Z,101927.71
2023-04-18T12:27:03.457Z,101924.96
2023-04-18T12:29:32.139Z,101922.16
2023-04-18T12:32:00.828Z,101925.34
2023-04-18T12:34:29.611Z,101923.70
2023-04-18T12:36:58.309Z,101925.75
2023-04-18T12:39:27.075Z,101925.25
2023-04-18T12:41:55.811Z,101923.04
2023-04-18T12:44:24.830Z,101927.13
2023-04-18T12:46:53.642Z,101927.75
2023-04-18T12:49:22.733Z,101925.92
2023-04-18T12:51:51.394Z,101925.80
2023-04-18T12:54:20.731Z,101923.67
2023-04-18T12:56:49.450Z,101913.86
2023-04-18T12:59:18.140Z,101917.33
2023-04-18T13:01:46.849Z,101913.92
2023-04-18T13:04:16.074Z,101913.50
2023-04-18T13:07:20.672Z,101914.98
2023-04-18T13:09:49.408Z,101909.98
2023-04-18T13:12:18.063Z,101907.42
2023-04-18T13:14:46.717Z,101908.95
2023-04-18T13:17:15.684Z,101905.45
2023-04-18T13:19:44.408Z,101900.33
2023-04-18T13:22:13.223Z,101897.08
2023-04-18T13:24:41.963Z,101900.34
2023-04-18T13:27:10.607Z,101894.50
2023-04-18T13:29:41.283Z,101894.31
2023-04-18T13:32:10.361Z,101895.47
2023-04-18T13:34:42.564Z,101888.69
2023-04-18T13:37:11.517Z,101891.30
2023-04-18T13:39:40.626Z,101887.95
2023-04-18T13:42:10.029Z,101889.80
2023-04-18T13:44:38.865Z,101889.63
2023-04-18T13:47:08.152Z,101890.44
2023-04-18T13:49:37.173Z,101888.80
2023-04-18T13:52:05.943Z,101892.12
2023-04-18T13:54:34.670Z,101891.71
2023-04-18T13:57:03.823Z,101885.83
2023-04-18T13:59:32.642Z,101875.08
2023-04-18T14:02:01.414Z,101880.17
2023-04-18T14:04:31.942Z,101879.33
2023-04-18T14:07:01.698Z,101880.95
2023-04-18T14:09:30.416Z,101884.83
2023-04-18T14:11:59.276Z,101882.08
2023-04-18T14:14:28.086Z,101877.86
2023-04-18T14:16:57.373Z,101876.50
2023-04-18T14:19:27.365Z,101875.80
2023-04-18T14:21:56.023Z,101878.44
2023-04-18T14:24:24.688Z,101876.64
2023-04-18T14:26:53.420Z,101876.21
2023-04-18T14:29:22.135Z,101874.83
2023-04-18T14:31:50.840Z,101874.64
2023-04-18T14:34:19.630Z,101874.68
2023-04-18T14:36:48.282Z,101874.79
2023-04-18T14:39:16.949Z,101876.29
2023-04-18T14:41:45.959Z,101874.96
2023-04-18T14:44:14.766Z,101878.23
2023-04-18T14:46:43.494Z,101876.88
2023-04-18T14:49:12.402Z,101878.98
2023-04-18T14:51:41.239Z,101877.64
2023-04-18T14:54:09.989Z,101875.51
2023-04-18T14:56:38.698Z,101875.06
2023-04-18T14:59:07.412Z,101882.73
2023-04-18T15:01:36.242Z,101873.55
2023-04-18T15:04:05.963Z,101877.35
2023-04-18T15:06:35.073Z,101878.95
2023-04-18T15:09:03.804Z,101877.23
2023-04-18T15:11:32.539Z,101876.88
2023-04-18T15:14:01.253Z,101875.39
2023-04-18T15:16:31.126Z,101873.61
2023-04-18T15:19:00.468Z,101870.80
2023-04-18T15:21:29.243Z,101871.00
2023-04-18T15:23:59.101Z,101866.98
2023-04-18T15:26:27.872Z,101863.86
2023-04-18T15:28:56.633Z,101867.41
2023-04-18T15:31:26.175Z,101867.42
2023-04-18T15:33:55.209Z,101867.96
2023-04-18T15:36:24.063Z,101862.38
2023-04-18T15:38:52.734Z,101860.28
2023-04-18T15:41:21.421Z,101860.08
2023-04-18T15:43:52.157Z,101855.71
2023-04-18T15:46:20.914Z,101857.81
2023-04-18T15:48:49.705Z,101860.11
2023-04-18T15:51:18.436Z,101859.94
2023-04-18T15:53:47.162Z,101856.52
2023-04-18T15:56:15.905Z,101856.85
2023-04-18T15:58:44.570Z,101857.42
2023-04-18T16:01:16.011Z,101860.06
2023-04-18T16:03:44.829Z,101858.23
2023-04-18T16:06:15.412Z,101857.23
2023-04-18T16:08:44.099Z,101857.39
2023-04-18T16:11:12.758Z,101858.53
2023-04-18T16:13:41.412Z,101854.23
2023-04-18T16:16:10.261Z,101854.20
2023-04-18T16:18:39.401Z,101855.50
2023-04-18T16:21:08.075Z,101858.49
2023-04-18T16:23:37.265Z,101856.30
2023-04-18T16:26:06.303Z,101855.21
2023-04-18T16:28:37.727Z,101852.87
2023-04-18T16:31:06.591Z,101854.15
2023-04-18T16:33:35.411Z,101855.35
2023-04-18T16:36:05.090Z,101854.29
2023-04-18T16:38:33.810Z,101851.21
2023-04-18T16:41:02.608Z,101852.38
2023-04-18T16:43:31.343Z,101850.96
2023-04-18T16:46:00.587Z,101849.04
2023-04-18T16:48:29.758Z,101847.95
2023-04-18T16:50:58.518Z,101850.89
2023-04-18T16:53:27.246Z,101847.09
2023-04-18T16:55:56.071Z,101851.67
2023-04-18T16:58:24.781Z,101849.38
2023-04-18T17:00:53.527Z,101850.58
2023-04-18T17:03:22.335Z,101849.61
2023-04-18T17:05:51.186Z,101846.55
2023-04-18T17:08:19.879Z,101844.27
2023-04-18T17:10:52.059Z,101843.25
2023-04-18T17:13:26.716Z,101844.24
2023-04-18T17:15:55.462Z,101844.09
2023-04-18T17:18:24.598Z,101846.45
2023-04-18T17:20:53.372Z,101849.75
2023-04-18T17:23:22.908Z,101848.10
2023-04-18T17:25:51.705Z,101850.23
2023-04-18T17:28:21.287Z,101848.78
2023-04-18T17:30:50.790Z,101849.69
2023-04-18T17:33:19.482Z,101851.64
2023-04-18T17:35:48.319Z,101845.90
2023-04-18T17:38:16.969Z,101850.35
2023-04-18T17:40:46.068Z,101854.60
2023-04-18T17:43:14.705Z,101855.42
2023-04-18T17:45:44.100Z,101855.53
2023-04-18T17:48:12.856Z,101854.65
2023-04-18T17:50:41.710Z,101852.86
2023-04-18T17:53:12.397Z,101853.58
2023-04-18T17:55:41.390Z,101853.70
2023-04-18T17:58:10.033Z,101850.98
2023-04-18T18:00:38.799Z,101852.10
2023-04-18T18:03:13.539Z,101855.63
2023-04-18T18:05:46.190Z,101852.99
2023-04-18T18:08:15.131Z,101861.33
2023-04-18T18:10:46.557Z,101860.23
2023-04-18T18:13:15.826Z,101857.14
2023-04-18T18:15:44.552Z,101860.54
2023-04-18T18:18:13.233Z,101856.77
2023-04-18T18:20:43.317Z,101863.77
2023-04-18T18:23:12.084Z,101863.59
2023-04-18T18:25:41.651Z,101867.40
2023-04-18T18:28:10.310Z,101873.23
2023-04-18T18:30:38.976Z,101872.33
2023-04-18T18:33:07.774Z,101870.61
2023-04-18T18:35:36.717Z,101875.45
2023-04-18T18:38:05.380Z,101876.29
2023-04-18T18:40:34.402Z,101878.28
2023-04-18T18:43:03.178Z,101878.92
2023-04-18T18:45:31.909Z,101882.91
2023-04-18T18:48:00.783Z,101889.02
2023-04-18T18:50:29.589Z,101881.88
2023-04-18T18:52:58.312Z,101879.33
2023-04-18T18:55:27.454Z,101886.36
2023-04-18T18:57:56.117Z,101883.39
2023-04-18T19:00:25.051Z,101885.12
2023-04-18T19:02:53.871Z,101882.05
2023-04-18T19:05:22.761Z,101880.02
2023-04-18T19:07:51.536Z,101880.29
2023-04-18T19:10:21.067Z,101876.58
2023-04-18T19:12:49.729Z,101877.44
2023-04-18T19:15:18.488Z,101874.98
2023-04-18T19:17:47.249Z,101877.02
2023-04-18T19:20:15.971Z,101878.55
2023-04-18T19:22:44.622Z,101878.70
2023-04-18T19:25:13.278Z,101879.77
2023-04-18T19:27:42.962Z,101877.33
2023-04-18T19:30:12.095Z,101878.25
2023-04-18T19:32:40.886Z,101876.78
2023-04-18T19:35:13.130Z,101876.86
2023-04-18T19:37:42.821Z,101876.98
2023-04-18T19:40:11.939Z,101875.70
2023-04-18T19:42:41.060Z,101873.98
2023-04-18T19:45:12.112Z,101874.48
2023-04-18T19:47:43.937Z,101873.58
2023-04-18T19:50:12.673Z,101872.98
2023-04-18T19:52:41.407Z,101870.21
2023-04-18T19:55:10.320Z,101870.56
2023-04-18T19:57:41.416Z,101870.29
2023-04-18T20:00:12.610Z,101866.64
2023-04-18T20:02:41.610Z,101868.53
2023-04-18T20:05:10.796Z,101868.97
2023-04-18T20:07:39.840Z,101865.27
2023-04-18T20:10:09.053Z,101864.39
2023-04-18T20:12:37.825Z,101863.95
2023-04-18T20:15:07.279Z,101863.45
2023-04-18T20:17:36.051Z,101862.11
2023-04-18T20:20:08.105Z,101865.60
2023-04-18T20:22:37.944Z,101866.45
2023-04-18T20:25:07.020Z,101862.56
2023-04-18T20:27:35.794Z,101859.23
2023-04-18T20:30:05.215Z,101862.52
2023-04-18T20:32:34.612Z,101860.85
2023-04-18T20:35:04.353Z,101859.73
2023-04-18T20:37:36.690Z,101863.36
2023-04-18T20:40:10.758Z,101861.13
2023-04-18T20:42:39.566Z,101862.34
2023-04-18T20:45:11.688Z,101857.83
2023-04-18T20:47:42.103Z,101860.80
2023-04-18T20:50:11.035Z,101860.91
2023-04-18T20:52:42.803Z,101857.77
2023-04-18T20:55:11.713Z,101864.66
2023-04-18T20:57:40.359Z,101860.06
2023-04-18T21:00:10.538Z,101857.22
2023-04-18T21:02:41.080Z,101856.05
2023-04-18T21:05:10.569Z,101856.79
2023-04-18T21:07:39.210Z,101857.40
2023-04-18T21:10:08.253Z,101857.96
2023-04-18T21:12:36.919Z,101858.02
2023-04-18T21:15:06.154Z,101859.04
2023-04-18T21:17:34.866Z,101857.73
2023-04-18T21:20:03.725Z,101853.15
2023-04-18T21:22:32.398Z,101851.09
2023-04-18T21:25:01.107Z,101842.64
2023-04-18T21:27:30.255Z,101846.58
2023-04-18T21:29:58.908Z,101840.73
2023-04-18T21:32:27.689Z,101839.03
2023-04-18T21:34:57.770Z,101839.11
2023-04-18T21:37:26.507Z,101836.98
2023-04-18T21:39:55.178Z,101833.04
2023-04-18T21:42:23.872Z,101832.80
2023-04-18T21:44:54.796Z,101831.52
2023-04-18T21:47:23.545Z,101832.45
2023-04-18T21:49:52.222Z,101827.94
2023-04-18T21:52:21.086Z,101828.48
2023-04-18T21:54:49.795Z,101823.86
2023-04-18T21:57:18.536Z,101825.45
2023-04-18T21:59:47.234Z,101824.17
2023-04-18T22:02:16.115Z,101826.95
2023-04-18T22:04:44.963Z,101826.42
2023-04-18T22:07:15.600Z,101818.95
2023-04-18T22:09:45.991Z,101817.41
2023-04-18T22:12:15.487Z,101815.11
2023-04-18T22:14:48.442Z,101815.34
2023-04-18T22:17:17.329Z,101811.44
2023-04-18T22:19:47.605Z,101808.10
2023-04-18T22:22:16.560Z,101807.19
2023-04-18T22:24:47.344Z,101800.42
2023-04-18T22:27:16.513Z,101799.17
2023-04-18T22:29:45.159Z,101793.96
2023-04-18T22:32:13.801Z,101791.10
2023-04-18T22:34:42.439Z,101792.09
2023-04-18T22:37:11.091Z,101788.92
2023-04-18T22:39:39.785Z,101785.27
2023-04-18T22:42:08.480Z,101785.46
2023-04-18T22:44:37.156Z,101782.66
2023-04-18T22:47:06.383Z,101779.28
2023-04-18T22:49:35.714Z,101774.80
2023-04-18T22:52:05.003Z,101774.09
2023-04-18T22:54:38.433Z,101770.64
2023-04-18T22:57:07.984Z,101770.89
2023-04-18T22:59:36.808Z,101772.64
2023-04-18T23:02:05.692Z,101766.90
2023-04-18T23:04:34.677Z,101766.09
2023-04-18T23:07:03.654Z,101758.36
2023-04-18T23:09:33.123Z,101757.77
2023-04-18T23:12:04.718Z,101754.66
2023-04-18T23:14:34.563Z,101751.03
2023-04-18T23:17:03.238Z,101749.88
2023-04-18T23:19:31.908Z,101745.29
2023-04-18T23:22:00.592Z,101743.25
2023-04-18T23:24:30.814Z,101743.23
2023-04-18T23:26:59.480Z,101744.13
2023-04-18T23:29:29.083Z,101742.39
2023-04-18T23:31:57.828Z,101743.79
2023-04-18T23:34:26.473Z,101739.14
2023-04-18T23:36:55.130Z,101736.36
2023-04-18T23:39:26.272Z,101735.77
2023-04-18T23:41:54.957Z,101732.30
2023-04-18T23:44:23.742Z,101727.59
2023-04-18T23:46:52.584Z,101726.27
2023-04-18T23:49:21.450Z,101723.83
2023-04-18T23:51:50.289Z,101721.36
2023-04-18T23:54:18.947Z,101713.38
2023-04-18T23:56:47.646Z,101710.66
2023-04-18T23:59:16.419Z,101708.05
